aviador You're here:

KMOB Decoded Metar

MOBILE in AL, USA
Report Time2017-08-18 16:09:00
UTC Time2017-08-18 16:28:40
Flight Rules vfr VFR
Wind330° at 08 kt
W.Decomp.*RWY 32: 7.9 kt HW 1.5 kt RCW
RWY 36: 7.0 kt HW 3.9 kt LCW
W.Rank330° ranks 21
Current wind is above 330° avg. (6.7)
Visibility9999 m
Phenomena:N/A
Clouds:Broken 030 Hf
Expected CloudBase > 3,200 ft AGL from Temp-Dew spread
Ceiling3,000 ft
Temp32°C (ISA +17)
Dew Point24°C (63% RH)
Heat Index38.0°C
QNH1018 hPa
Density Alt2,418 ft
Elevation207 ft
Report Wrong Elevation
Raw Report
KMOB 181609Z 33008KT 10SM BKN030 32/24 A3005=

Extra information for KMOB:More info

Metar Taf Metar & Taf Last 4 Metars F.Rules Stats Wind Profile Meteogram Temp Stats Airport Information Weather charts Add Link Nearby VenuesMetar ALERT Operation Metar Decoded Social comments

AIRNAV info for KMOB